createdAt,value
2018-04-30T00:01:47.577Z,4.67
2018-04-30T00:04:15.941Z,4.47
2018-04-30T00:06:44.309Z,4.90
2018-04-30T00:09:12.810Z,5.20
2018-04-30T00:11:41.288Z,4.57
2018-04-30T00:14:09.680Z,4.57
2018-04-30T00:16:38.038Z,4.33
2018-04-30T00:19:06.392Z,4.68
2018-04-30T00:21:35.529Z,4.40
2018-04-30T00:24:03.861Z,4.63
2018-04-30T00:26:33.327Z,4.20
2018-04-30T00:29:01.664Z,4.40
2018-04-30T00:31:30.764Z,4.73
2018-04-30T00:33:59.129Z,4.30
2018-04-30T00:36:28.258Z,4.43
2018-04-30T00:38:56.577Z,4.77
2018-04-30T00:41:25.020Z,4.80
2018-04-30T00:43:53.383Z,4.00
2018-04-30T00:46:21.728Z,4.53
2018-04-30T00:48:50.703Z,4.93
2018-04-30T00:51:19.027Z,4.07
2018-04-30T00:53:47.377Z,4.30
2018-04-30T00:56:15.738Z,3.90
2018-04-30T00:58:44.156Z,4.60
2018-04-30T01:01:12.608Z,5.07
2018-04-30T01:03:41.016Z,4.63
2018-04-30T01:06:09.531Z,4.90
2018-04-30T01:08:37.931Z,4.60
2018-04-30T01:11:06.322Z,4.50
2018-04-30T01:13:35.207Z,4.90
2018-04-30T01:16:03.563Z,5.03
2018-04-30T01:18:32.347Z,4.83
2018-04-30T01:21:00.737Z,5.10
2018-04-30T01:23:29.154Z,4.57
2018-04-30T01:25:57.577Z,4.30
2018-04-30T01:28:25.987Z,4.70
2018-04-30T01:30:54.379Z,4.83
2018-04-30T01:33:22.756Z,4.27
2018-04-30T01:35:51.893Z,4.50
2018-04-30T01:38:20.242Z,4.80
2018-04-30T01:40:48.555Z,5.27
2018-04-30T01:43:16.929Z,5.17
2018-04-30T01:45:45.284Z,4.57
2018-04-30T01:48:14.410Z,5.00
2018-04-30T01:50:43.599Z,4.75
2018-04-30T01:53:11.949Z,5.13
2018-04-30T01:55:40.312Z,4.90
2018-04-30T01:58:09.565Z,5.37
2018-04-30T02:00:37.894Z,5.60
2018-04-30T02:03:06.244Z,4.93
2018-04-30T02:05:34.595Z,4.77
2018-04-30T02:08:02.987Z,5.40
2018-04-30T02:10:31.347Z,5.50
2018-04-30T02:12:59.680Z,5.40
2018-04-30T02:15:28.038Z,4.47
2018-04-30T02:17:56.410Z,5.10
2018-04-30T02:20:24.747Z,5.60
2018-04-30T02:22:53.890Z,5.20
2018-04-30T02:25:22.364Z,5.07
2018-04-30T02:27:50.743Z,5.10
2018-04-30T02:30:19.073Z,5.43
2018-04-30T02:32:48.319Z,6.30
2018-04-30T02:35:16.708Z,6.20
2018-04-30T02:37:45.991Z,5.50
2018-04-30T02:40:14.368Z,5.70
2018-04-30T02:42:42.772Z,6.77
2018-04-30T02:45:11.788Z,6.00
2018-04-30T02:47:40.131Z,5.90
2018-04-30T02:50:08.608Z,6.30
2018-04-30T02:52:37.052Z,6.30
2018-04-30T02:55:06.203Z,6.07
2018-04-30T02:57:34.527Z,6.20
2018-04-30T03:00:03.770Z,5.70
2018-04-30T03:02:32.112Z,6.43
2018-04-30T03:05:00.594Z,5.70
2018-04-30T03:07:28.928Z,6.13
2018-04-30T03:09:57.308Z,6.37
2018-04-30T03:12:25.654Z,6.63
2018-04-30T03:14:54.044Z,6.67
2018-04-30T03:17:23.350Z,6.00
2018-04-30T03:19:51.701Z,6.83
2018-04-30T03:22:20.809Z,6.70
2018-04-30T03:24:49.748Z,6.90
2018-04-30T03:27:18.087Z,6.47
2018-04-30T03:29:47.405Z,7.00
2018-04-30T03:32:15.758Z,7.33
2018-04-30T03:34:44.129Z,6.87
2018-04-30T03:37:12.492Z,7.70
2018-04-30T03:39:40.900Z,7.77
2018-04-30T03:42:09.268Z,7.90
2018-04-30T03:44:37.687Z,7.43
2018-04-30T03:47:06.781Z,7.93
2018-04-30T03:49:35.191Z,7.83
2018-04-30T03:52:03.481Z,8.07
2018-04-30T03:54:31.843Z,8.60
2018-04-30T03:57:01.352Z,7.70
2018-04-30T03:59:29.721Z,8.60
2018-04-30T04:02:16.573Z,8.70
2018-04-30T04:05:02.697Z,8.50
2018-04-30T04:07:31.037Z,9.30
2018-04-30T04:10:00.096Z,9.47
2018-04-30T04:12:29.264Z,9.80
2018-04-30T04:14:57.629Z,10.17
2018-04-30T04:17:25.975Z,8.33
2018-04-30T04:19:54.334Z,10.20
2018-04-30T04:22:23.427Z,10.63
2018-04-30T04:24:52.549Z,11.00
2018-04-30T04:27:20.920Z,11.17
2018-04-30T04:29:50.310Z,10.30
2018-04-30T04:32:19.646Z,10.50
2018-04-30T04:34:48.033Z,10.60
2018-04-30T04:37:16.380Z,9.43
2018-04-30T04:39:44.745Z,9.57
2018-04-30T04:42:13.892Z,10.20
2018-04-30T04:44:42.273Z,10.27
2018-04-30T04:47:10.661Z,10.73
2018-04-30T04:49:39.864Z,11.20
2018-04-30T04:52:08.211Z,10.67
2018-04-30T04:54:36.590Z,11.50
2018-04-30T04:57:04.940Z,11.80
2018-04-30T04:59:34.169Z,10.77
2018-04-30T05:02:03.138Z,10.93
2018-04-30T05:04:31.467Z,11.50
2018-04-30T05:07:00.789Z,12.07
2018-04-30T05:09:30.159Z,12.60
2018-04-30T05:11:58.951Z,11.87
2018-04-30T05:14:27.844Z,10.63
2018-04-30T05:16:56.198Z,11.83
2018-04-30T05:19:24.561Z,11.80
2018-04-30T05:21:52.931Z,11.73
2018-04-30T05:24:21.851Z,12.70
2018-04-30T05:26:50.229Z,12.93
2018-04-30T05:29:18.831Z,12.03
2018-04-30T05:31:47.246Z,13.03
2018-04-30T05:34:16.433Z,12.87
2018-04-30T05:36:45.374Z,13.67
2018-04-30T05:39:13.784Z,13.27
2018-04-30T05:41:42.153Z,12.87
2018-04-30T05:44:10.487Z,12.53
2018-04-30T05:46:39.631Z,13.17
2018-04-30T05:49:08.948Z,13.67
2018-04-30T05:51:37.360Z,12.47
2018-04-30T05:54:06.481Z,12.30
2018-04-30T05:56:36.230Z,13.03
2018-04-30T05:59:04.564Z,13.33
2018-04-30T06:01:32.998Z,12.77
2018-04-30T06:04:01.855Z,12.80
2018-04-30T06:06:30.609Z,12.43
2018-04-30T06:08:59.736Z,12.77
2018-04-30T06:11:28.221Z,12.67
2018-04-30T06:13:56.637Z,13.13
2018-04-30T06:16:25.026Z,13.57
2018-04-30T06:18:54.128Z,11.60
2018-04-30T06:21:24.094Z,12.67
2018-04-30T06:23:52.415Z,12.30
2018-04-30T06:26:21.543Z,12.03
2018-04-30T06:28:49.902Z,12.43
2018-04-30T06:31:19.109Z,11.60
2018-04-30T06:33:48.942Z,12.57
2018-04-30T06:36:17.422Z,11.70
2018-04-30T06:38:45.885Z,11.23
2018-04-30T06:41:14.323Z,10.53
2018-04-30T06:43:42.680Z,10.93
2018-04-30T06:46:11.040Z,11.93
2018-04-30T06:48:39.362Z,12.17
2018-04-30T06:51:08.102Z,11.33
2018-04-30T06:53:36.519Z,13.62
2018-04-30T06:56:04.902Z,12.40
2018-04-30T06:58:34.301Z,13.18
2018-04-30T07:01:03.385Z,11.33
2018-04-30T07:03:31.767Z,11.20
2018-04-30T07:06:00.186Z,11.00
2018-04-30T07:08:29.353Z,11.43
2018-04-30T07:10:58.490Z,13.20
2018-04-30T07:13:27.159Z,13.73
2018-04-30T07:15:56.319Z,9.90
2018-04-30T07:18:24.687Z,10.03
2018-04-30T07:20:53.914Z,8.80
2018-04-30T07:23:22.282Z,8.53
2018-04-30T07:25:50.680Z,7.17
2018-04-30T07:28:19.117Z,7.20
2018-04-30T07:30:48.760Z,6.70
2018-04-30T07:33:17.197Z,7.00
2018-04-30T07:35:45.498Z,6.70
2018-04-30T07:38:13.884Z,7.97
2018-04-30T07:40:44.010Z,7.27
2018-04-30T07:43:12.358Z,6.40
2018-04-30T07:45:41.487Z,6.60
2018-04-30T07:48:09.871Z,6.70
2018-04-30T07:50:38.192Z,5.77
2018-04-30T07:53:07.346Z,6.20
2018-04-30T07:55:36.682Z,5.57
2018-04-30T07:58:05.043Z,5.30
2018-04-30T08:00:34.202Z,6.17
2018-04-30T08:03:02.640Z,5.73
2018-04-30T08:05:31.078Z,4.87
2018-04-30T08:07:59.492Z,5.33
2018-04-30T08:10:28.623Z,4.83
2018-04-30T08:12:57.691Z,3.30
2018-04-30T08:15:26.081Z,2.57
2018-04-30T08:17:54.410Z,1.90
2018-04-30T08:20:22.825Z,1.77
2018-04-30T08:22:51.917Z,1.40
2018-04-30T08:25:21.056Z,1.50
2018-04-30T08:27:49.519Z,1.03
2018-04-30T08:30:17.990Z,1.77
2018-04-30T08:32:46.363Z,1.30
2018-04-30T08:35:14.813Z,0.90
2018-04-30T08:37:43.143Z,0.90
2018-04-30T08:40:11.542Z,1.13
2018-04-30T08:42:39.887Z,2.00
2018-04-30T08:45:08.358Z,3.07
2018-04-30T08:47:36.641Z,2.40
2018-04-30T08:50:04.988Z,1.60
2018-04-30T08:52:33.362Z,1.27
2018-04-30T08:55:02.701Z,1.47
2018-04-30T08:57:31.801Z,0.90
2018-04-30T09:00:00.130Z,1.67
2018-04-30T09:02:28.525Z,1.33
2018-04-30T09:04:59.199Z,1.20
2018-04-30T09:07:27.552Z,1.00
2018-04-30T09:09:56.691Z,0.70
2018-04-30T09:12:25.053Z,0.60
2018-04-30T09:14:53.674Z,1.10
2018-04-30T09:17:21.937Z,1.10
2018-04-30T09:19:50.274Z,0.83
2018-04-30T09:22:18.873Z,0.73
2018-04-30T09:24:47.233Z,0.80
2018-04-30T09:27:15.608Z,0.80
2018-04-30T09:29:44.789Z,0.80
2018-04-30T09:32:13.896Z,0.70
2018-04-30T09:34:43.012Z,0.93
2018-04-30T09:37:11.704Z,0.60
2018-04-30T09:39:40.338Z,0.70
2018-04-30T09:42:08.767Z,0.80
2018-04-30T09:44:37.941Z,0.80
2018-04-30T09:47:06.265Z,0.60
2018-04-30T09:49:34.665Z,0.60
2018-04-30T09:52:03.425Z,0.83
2018-04-30T09:54:31.772Z,0.70
2018-04-30T09:57:00.102Z,0.50
2018-04-30T09:59:28.455Z,0.77
2018-04-30T10:01:56.826Z,0.53
2018-04-30T10:04:25.179Z,0.50
2018-04-30T10:06:53.530Z,0.60
2018-04-30T10:09:23.496Z,0.40
2018-04-30T10:11:51.959Z,0.70
2018-04-30T10:14:20.420Z,0.50
2018-04-30T10:16:48.813Z,0.77
2018-04-30T10:19:17.977Z,0.70
2018-04-30T10:21:46.317Z,0.70
2018-04-30T10:24:14.753Z,0.90
2018-04-30T10:26:43.856Z,0.63
2018-04-30T10:29:13.730Z,0.65
2018-04-30T10:31:42.170Z,0.70
2018-04-30T10:34:10.462Z,0.80
2018-04-30T10:36:38.800Z,0.60
2018-04-30T10:39:07.186Z,0.77
2018-04-30T10:41:37.248Z,0.90
2018-04-30T10:44:05.618Z,0.90
2018-04-30T10:46:33.942Z,1.00
2018-04-30T10:49:02.267Z,1.10
2018-04-30T10:51:30.855Z,1.10
2018-04-30T10:53:59.161Z,0.90
2018-04-30T10:56:27.488Z,0.77
2018-04-30T10:58:56.769Z,0.70
2018-04-30T11:01:25.914Z,0.50
2018-04-30T11:03:54.266Z,0.60
2018-04-30T11:06:22.808Z,0.30
2018-04-30T11:08:51.133Z,0.50
2018-04-30T11:11:19.542Z,0.30
2018-04-30T11:13:47.874Z,0.33
2018-04-30T11:16:16.225Z,0.30
2018-04-30T11:18:44.579Z,0.40
2018-04-30T11:21:12.954Z,0.50
2018-04-30T11:23:41.285Z,0.57
2018-04-30T11:26:10.456Z,0.40
2018-04-30T11:28:38.912Z,0.60
2018-04-30T11:31:07.322Z,0.40
2018-04-30T11:33:36.476Z,0.57
2018-04-30T11:36:04.843Z,0.63
2018-04-30T11:38:33.173Z,0.50
2018-04-30T11:41:01.659Z,0.50
2018-04-30T11:43:30.824Z,0.90
2018-04-30T11:45:59.948Z,0.40
2018-04-30T11:48:29.058Z,0.70
2018-04-30T11:50:57.441Z,0.60
2018-04-30T11:53:26.658Z,0.50
2018-04-30T11:55:55.909Z,0.60
2018-04-30T11:58:24.268Z,0.50
2018-04-30T12:00:52.601Z,0.50
2018-04-30T12:03:21.048Z,0.70
2018-04-30T12:05:49.394Z,0.60
2018-04-30T12:08:17.750Z,0.60
2018-04-30T12:10:46.191Z,0.60
2018-04-30T12:13:15.419Z,0.80
2018-04-30T12:15:44.360Z,0.60
2018-04-30T12:18:12.749Z,0.63
2018-04-30T12:20:42.793Z,0.70
2018-04-30T12:23:12.119Z,0.50
2018-04-30T12:25:40.521Z,3.03
2018-04-30T12:28:08.881Z,1.00
2018-04-30T12:30:37.233Z,0.70
2018-04-30T12:33:05.614Z,0.80
2018-04-30T12:35:34.003Z,0.60
2018-04-30T12:38:02.427Z,0.90
2018-04-30T12:40:30.803Z,0.73
2018-04-30T12:42:59.945Z,0.70
2018-04-30T12:45:29.104Z,0.57
2018-04-30T12:47:58.210Z,0.70
2018-04-30T12:50:26.592Z,0.80
2018-04-30T12:52:55.729Z,0.80
2018-04-30T12:55:24.085Z,0.80
2018-04-30T12:57:53.204Z,0.80
2018-04-30T13:00:21.576Z,0.87
2018-04-30T13:02:50.001Z,0.90
2018-04-30T13:05:18.388Z,0.87
2018-04-30T13:07:46.790Z,0.70
2018-04-30T13:10:15.907Z,0.80
2018-04-30T13:12:45.076Z,0.70
2018-04-30T13:15:13.518Z,1.00
2018-04-30T13:17:41.928Z,0.80
2018-04-30T13:20:10.367Z,0.80
2018-04-30T13:22:38.716Z,0.60
2018-04-30T13:25:07.848Z,0.60
2018-04-30T13:27:37.004Z,0.50
2018-04-30T13:30:06.101Z,0.90
2018-04-30T13:32:35.935Z,0.70
2018-04-30T13:35:04.261Z,0.80
2018-04-30T13:37:32.667Z,0.60
2018-04-30T13:40:01.960Z,1.17
2018-04-30T13:42:31.078Z,1.50
2018-04-30T13:44:59.461Z,0.67
2018-04-30T13:47:29.324Z,0.80
2018-04-30T13:49:57.735Z,0.70
2018-04-30T13:52:26.867Z,0.73
2018-04-30T13:54:55.279Z,0.77
2018-04-30T13:57:23.637Z,0.90
2018-04-30T13:59:52.026Z,0.73
2018-04-30T14:02:20.442Z,0.90
2018-04-30T14:04:48.832Z,0.90
2018-04-30T14:07:18.784Z,0.70
2018-04-30T14:09:47.180Z,0.70
2018-04-30T14:12:17.357Z,0.97
2018-04-30T14:14:46.470Z,0.70
2018-04-30T14:17:14.832Z,0.87
2018-04-30T14:19:44.127Z,0.80
2018-04-30T14:22:12.658Z,0.73
2018-04-30T14:24:41.042Z,0.83
2018-04-30T14:27:09.682Z,0.70
2018-04-30T14:29:38.083Z,0.80
2018-04-30T14:32:06.528Z,0.83
2018-04-30T14:34:35.700Z,0.70
2018-04-30T14:37:04.050Z,0.73
2018-04-30T14:39:32.414Z,0.87
2018-04-30T14:42:01.117Z,0.80
2018-04-30T14:44:29.586Z,0.87
2018-04-30T14:46:59.609Z,0.87
2018-04-30T14:49:28.015Z,0.80
2018-04-30T14:51:56.436Z,0.90
2018-04-30T14:54:25.568Z,0.70
2018-04-30T14:56:54.817Z,0.80
2018-04-30T14:59:23.926Z,0.77
2018-04-30T15:01:53.042Z,0.60
2018-04-30T15:04:21.413Z,0.70
2018-04-30T15:06:51.797Z,0.70
2018-04-30T15:09:20.192Z,0.77
2018-04-30T15:11:49.352Z,1.00
2018-04-30T15:14:17.783Z,2.00
2018-04-30T15:16:46.914Z,0.67
2018-04-30T15:19:15.269Z,0.60
2018-04-30T15:21:43.608Z,0.40
2018-04-30T15:24:12.892Z,0.70
2018-04-30T15:26:41.987Z,0.60
2018-04-30T15:29:10.348Z,1.30
2018-04-30T15:31:38.767Z,1.50
2018-04-30T15:34:07.128Z,0.60
2018-04-30T15:36:35.528Z,0.60
2018-04-30T15:39:03.890Z,1.60
2018-04-30T15:41:32.214Z,1.20
2018-04-30T15:44:00.637Z,0.65
2018-04-30T15:46:29.110Z,0.55
2018-04-30T15:48:57.507Z,0.50
2018-04-30T15:51:25.878Z,0.57
2018-04-30T15:53:54.210Z,0.50
2018-04-30T15:56:22.561Z,0.50
2018-04-30T15:58:51.113Z,0.60
2018-04-30T16:01:19.502Z,0.80
2018-04-30T16:03:47.849Z,0.52
2018-04-30T16:06:16.210Z,0.50
2018-04-30T16:08:45.483Z,0.47
2018-04-30T16:11:14.588Z,0.60
2018-04-30T16:13:43.711Z,0.60
2018-04-30T16:16:12.089Z,0.40
2018-04-30T16:18:40.479Z,0.50
2018-04-30T16:21:08.881Z,0.60
2018-04-30T16:23:37.215Z,0.40
2018-04-30T16:26:05.589Z,0.90
2018-04-30T16:28:34.030Z,0.60
2018-04-30T16:31:02.419Z,0.47
2018-04-30T16:33:30.808Z,0.30
2018-04-30T16:35:59.890Z,0.60
2018-04-30T16:38:28.279Z,0.50
2018-04-30T16:40:56.632Z,0.53
2018-04-30T16:43:25.004Z,0.50
2018-04-30T16:45:53.342Z,0.60
2018-04-30T16:48:21.713Z,0.50
2018-04-30T16:50:50.804Z,0.57
2018-04-30T16:53:19.926Z,0.70
2018-04-30T16:55:48.288Z,0.60
2018-04-30T16:58:16.619Z,0.43
2018-04-30T17:00:44.960Z,2.47
2018-04-30T17:03:13.316Z,0.90
2018-04-30T17:05:42.408Z,0.57
2018-04-30T17:10:49.814Z,0.67
2018-04-30T17:13:19.307Z,0.70
2018-04-30T17:15:48.428Z,0.50
2018-04-30T17:18:17.100Z,0.60
2018-04-30T17:20:45.498Z,0.67
2018-04-30T17:23:14.792Z,0.57
2018-04-30T17:25:43.163Z,0.60
2018-04-30T17:28:12.316Z,0.47
2018-04-30T17:30:41.054Z,0.77
2018-04-30T17:33:09.430Z,0.40
2018-04-30T17:35:38.146Z,0.53
2018-04-30T17:38:07.612Z,0.50
2018-04-30T17:40:36.897Z,0.23
2018-04-30T17:43:06.865Z,0.60
2018-04-30T17:45:35.435Z,0.40
2018-04-30T17:48:03.814Z,0.50
2018-04-30T17:50:32.155Z,0.70
2018-04-30T17:53:00.548Z,0.70
2018-04-30T17:55:29.764Z,0.50
2018-04-30T17:57:59.016Z,0.70
2018-04-30T18:00:27.470Z,0.60
2018-04-30T18:02:56.347Z,0.43
2018-04-30T18:05:24.914Z,0.50
2018-04-30T18:07:53.436Z,0.50
2018-04-30T18:10:21.933Z,0.60
2018-04-30T18:12:52.457Z,0.60
2018-04-30T18:15:23.211Z,0.50
2018-04-30T18:17:52.865Z,0.60
2018-04-30T18:20:21.286Z,0.40
2018-04-30T18:22:49.716Z,1.03
2018-04-30T18:25:18.169Z,1.67
2018-04-30T18:27:47.370Z,1.03
2018-04-30T18:30:15.639Z,0.60
2018-04-30T18:32:44.114Z,0.77
2018-04-30T18:35:12.526Z,0.40
2018-04-30T18:37:40.948Z,0.80
2018-04-30T18:40:09.944Z,0.77
2018-04-30T18:42:38.465Z,0.80
2018-04-30T18:45:07.844Z,0.62
2018-04-30T18:47:36.230Z,0.60
2018-04-30T18:50:06.858Z,0.80
2018-04-30T18:52:36.785Z,0.93
2018-04-30T18:55:05.966Z,0.70
2018-04-30T18:57:37.157Z,0.70
2018-04-30T19:00:05.568Z,0.90
2018-04-30T19:02:34.253Z,0.60
2018-04-30T19:05:02.696Z,0.73
2018-04-30T19:07:33.214Z,0.70
2018-04-30T19:10:01.596Z,0.80
2018-04-30T19:12:31.790Z,0.70
2018-04-30T19:15:06.062Z,0.90
2018-04-30T19:17:38.290Z,0.63
2018-04-30T19:20:09.888Z,0.97
2018-04-30T19:22:40.006Z,1.00
2018-04-30T19:25:09.955Z,0.90
2018-04-30T19:27:39.226Z,0.80
2018-04-30T19:30:10.794Z,0.70
2018-04-30T19:32:41.333Z,0.90
2018-04-30T19:35:11.350Z,0.80
2018-04-30T19:37:40.582Z,1.10
2018-04-30T19:40:10.116Z,0.80
2018-04-30T19:42:41.087Z,0.70
2018-04-30T19:45:11.909Z,1.03
2018-04-30T19:47:41.006Z,1.30
2018-04-30T19:50:10.791Z,0.80
2018-04-30T19:52:40.587Z,0.57
2018-04-30T19:55:09.680Z,0.53
2018-04-30T19:57:39.046Z,0.40
2018-04-30T20:00:10.671Z,0.50
2018-04-30T20:02:40.083Z,0.60
2018-04-30T20:05:08.659Z,0.30
2018-04-30T20:07:37.842Z,0.50
2018-04-30T20:10:07.214Z,0.50
2018-04-30T20:12:36.347Z,0.50
2018-04-30T20:15:05.421Z,0.50
2018-04-30T20:17:34.666Z,0.53
2018-04-30T20:20:03.051Z,0.27
2018-04-30T20:22:31.995Z,0.50
2018-04-30T20:25:00.583Z,0.43
2018-04-30T20:27:28.960Z,0.57
2018-04-30T20:29:58.407Z,0.57
2018-04-30T20:32:26.788Z,0.60
2018-04-30T20:34:55.154Z,0.77
2018-04-30T20:37:23.913Z,0.80
2018-04-30T20:39:53.509Z,0.97
2018-04-30T20:42:23.439Z,0.70
2018-04-30T20:44:51.789Z,0.97
2018-04-30T20:47:21.695Z,0.80
2018-04-30T20:49:51.091Z,0.50
2018-04-30T20:52:20.292Z,0.50
2018-04-30T20:54:50.100Z,0.40
2018-04-30T20:57:19.167Z,0.50
2018-04-30T20:59:47.758Z,0.90
2018-04-30T21:02:16.961Z,0.80
2018-04-30T21:04:47.328Z,0.90
2018-04-30T21:07:16.526Z,1.00
2018-04-30T21:09:57.850Z,0.90
2018-04-30T21:12:26.189Z,0.52
2018-04-30T21:14:55.348Z,0.60
2018-04-30T21:17:23.721Z,0.80
2018-04-30T21:19:53.066Z,1.27
2018-04-30T21:22:21.440Z,1.30
2018-04-30T21:24:54.390Z,1.83
2018-04-30T21:27:24.061Z,1.70
2018-04-30T21:29:52.414Z,1.67
2018-04-30T21:32:22.367Z,1.20
2018-04-30T21:34:50.724Z,0.80
2018-04-30T21:37:28.589Z,0.90
2018-04-30T21:39:57.155Z,0.70
2018-04-30T21:42:26.257Z,0.70
2018-04-30T21:44:54.683Z,0.90
2018-04-30T21:47:23.066Z,0.70
2018-04-30T21:49:52.303Z,0.93
2018-04-30T21:52:20.678Z,0.80
2018-04-30T21:54:49.057Z,0.60
2018-04-30T21:57:18.088Z,0.60
2018-04-30T21:59:47.248Z,0.60
2018-04-30T22:02:15.630Z,0.50
2018-04-30T22:04:45.630Z,0.60
2018-04-30T22:07:13.998Z,0.50
2018-04-30T22:09:43.194Z,0.57
2018-04-30T22:12:14.247Z,0.40
2018-04-30T22:14:42.730Z,0.70
2018-04-30T22:17:11.120Z,0.50
2018-04-30T22:19:39.795Z,0.50
2018-04-30T22:22:08.834Z,0.50
2018-04-30T22:24:37.969Z,0.53
2018-04-30T22:27:06.313Z,0.60
2018-04-30T22:29:35.444Z,0.73
2018-04-30T22:32:03.981Z,0.70
2018-04-30T22:34:33.076Z,0.50
2018-04-30T22:37:01.410Z,0.70
2018-04-30T22:39:29.767Z,0.60
2018-04-30T22:41:58.142Z,0.60
2018-04-30T22:44:27.333Z,0.50
2018-04-30T22:46:56.501Z,0.57
2018-04-30T22:49:24.945Z,0.60
2018-04-30T22:51:53.410Z,0.60
2018-04-30T22:54:21.888Z,0.53
2018-04-30T22:56:50.623Z,0.57
2018-04-30T22:59:19.098Z,0.60
2018-04-30T23:01:47.686Z,0.73
2018-04-30T23:04:16.550Z,0.70
2018-04-30T23:06:45.740Z,0.50
2018-04-30T23:09:14.126Z,0.70
2018-04-30T23:11:42.476Z,0.80
2018-04-30T23:14:10.856Z,0.87
2018-04-30T23:16:39.276Z,0.63
2018-04-30T23:19:08.502Z,0.90
2018-04-30T23:21:36.922Z,0.67
2018-04-30T23:24:05.280Z,0.80
2018-04-30T23:26:34.451Z,0.70
2018-04-30T23:29:04.609Z,0.60
2018-04-30T23:31:33.059Z,0.50
2018-04-30T23:34:02.300Z,0.70
2018-04-30T23:36:30.643Z,0.80
2018-04-30T23:38:59.796Z,0.63
2018-04-30T23:41:28.939Z,0.53
2018-04-30T23:43:57.320Z,0.73
2018-04-30T23:46:26.084Z,0.60
2018-04-30T23:48:54.458Z,0.90
2018-04-30T23:51:22.789Z,0.60
2018-04-30T23:53:51.140Z,0.60
2018-04-30T23:56:21.221Z,0.60
2018-04-30T23:58:50.221Z,0.50
